LEVD/VLL METAR and TAF weather

Enter ICAO airport designator
Station Type Date Time Source
LEVD METAR 2022/11/30 16:00 UTC NOAA

LEVD 301600Z 07001KT CAVOK 07/04 Q1014


Station Type Date Time Source
LEVD Decoded METAR 2022/11/30 16:00 UTC NOAA

Valladolid / Villanubla, Spain (LEVD) 41-43N 004-51W 846M
Nov 30, 2022 - 11:00 AM EST / 2022.11.30 1600 UTC
Wind: from the ENE (070 degrees) at 1 MPH (1 KT):0
Visibility: greater than 7 mile(s):0
Temperature: 44 F (7 C)
Dew Point: 39 F (4 C)
Relative Humidity: 81%
Pressure (altimeter): 29.94 in. Hg (1014 hPa)
ob: LEVD 301600Z 07001KT CAVOK 07/04 Q1014
cycle: 16

Station Type Date Time Source
LEVD TAF 2022/11/30 15:30 UTC NOAA

TAF LEVD 301400Z 3015/0115 VRB04KT CAVOK TX09/0115Z TN00/0106Z PROB30
TEMPO 0102/0109 2500 BR BCFG BKN005

Example: see airport list